createdAt,value
2022-08-14T00:01:03.920Z,22.00
2022-08-14T00:03:37.227Z,22.00
2022-08-14T00:06:14.059Z,22.00
2022-08-14T00:08:51.334Z,22.00
2022-08-14T00:11:19.689Z,22.00
2022-08-14T00:13:52.629Z,21.90
2022-08-14T00:16:41.665Z,21.80
2022-08-14T00:19:19.586Z,21.80
2022-08-14T00:21:50.330Z,21.80
2022-08-14T00:24:28.649Z,21.70
2022-08-14T00:27:02.304Z,21.80
2022-08-14T00:29:33.121Z,21.80
2022-08-14T00:32:53.035Z,21.80
2022-08-14T00:34:56.383Z,21.70
2022-08-14T00:37:23.283Z,21.60
2022-08-14T00:39:51.017Z,21.50
2022-08-14T00:42:21.218Z,21.70
2022-08-14T00:45:11.466Z,21.50
2022-08-14T00:47:44.757Z,21.50
2022-08-14T00:50:19.241Z,21.50
2022-08-14T00:52:52.171Z,21.50
2022-08-14T00:55:20.433Z,21.60
2022-08-14T00:58:08.999Z,21.60
2022-08-14T01:00:37.457Z,21.60
2022-08-14T01:03:17.543Z,21.60
2022-08-14T01:05:51.905Z,21.50
2022-08-14T01:08:57.759Z,21.50
2022-08-14T01:11:09.666Z,21.50
2022-08-14T01:13:42.921Z,21.60
2022-08-14T01:16:16.117Z,21.30
2022-08-14T01:19:05.500Z,21.20
2022-08-14T01:21:46.867Z,21.30
2022-08-14T01:24:24.858Z,21.30
2022-08-14T01:27:00.504Z,21.30
2022-08-14T01:29:58.496Z,21.30
2022-08-14T01:32:22.963Z,21.30
2022-08-14T01:35:18.200Z,21.40
2022-08-14T01:37:46.738Z,21.90
2022-08-14T01:40:25.616Z,21.50
2022-08-14T01:43:00.115Z,21.40
2022-08-14T01:45:31.359Z,21.50
2022-08-14T01:48:07.371Z,21.50
2022-08-14T01:50:41.879Z,21.50
2022-08-14T01:53:08.943Z,21.60
2022-08-14T01:55:36.598Z,21.60
2022-08-14T01:58:20.106Z,21.60
2022-08-14T02:00:54.429Z,21.60
2022-08-14T02:03:23.763Z,21.60
2022-08-14T02:05:50.461Z,21.60
2022-08-14T02:08:22.573Z,21.60
2022-08-14T02:11:17.138Z,21.50
2022-08-14T02:13:47.758Z,21.50
2022-08-14T02:16:22.547Z,21.50
2022-08-14T02:18:49.880Z,21.50
2022-08-14T02:21:19.289Z,21.50
2022-08-14T02:23:53.361Z,21.50
2022-08-14T02:26:29.198Z,21.40
2022-08-14T02:29:04.044Z,21.40
2022-08-14T02:31:42.135Z,21.40
2022-08-14T02:34:34.006Z,21.30
2022-08-14T02:37:09.768Z,21.30
2022-08-14T02:39:43.506Z,21.30
2022-08-14T02:42:13.618Z,21.30
2022-08-14T02:44:43.116Z,21.30
2022-08-14T02:47:19.204Z,21.30
2022-08-14T02:49:50.655Z,21.40
2022-08-14T02:52:55.535Z,21.30
2022-08-14T02:55:09.270Z,21.40
2022-08-14T02:57:40.044Z,21.30
2022-08-14T03:00:09.952Z,21.30
2022-08-14T03:02:56.834Z,21.30
2022-08-14T03:05:23.682Z,21.10
2022-08-14T03:07:52.847Z,21.30
2022-08-14T03:10:25.793Z,21.30
2022-08-14T03:12:53.927Z,21.30
2022-08-14T03:15:20.994Z,21.30
2022-08-14T03:17:57.132Z,21.40
2022-08-14T03:20:25.371Z,21.50
2022-08-14T03:22:52.732Z,21.40
2022-08-14T03:25:22.067Z,21.60
2022-08-14T03:27:58.380Z,21.40
2022-08-14T03:30:38.985Z,21.40
2022-08-14T03:33:11.500Z,21.40
2022-08-14T03:35:59.840Z,21.40
2022-08-14T03:39:11.841Z,21.40
2022-08-14T03:41:16.826Z,21.40
2022-08-14T03:43:57.442Z,21.50
2022-08-14T03:46:38.846Z,21.40
2022-08-14T03:49:24.088Z,21.30
2022-08-14T03:51:55.564Z,21.40
2022-08-14T03:54:24.451Z,21.30
2022-08-14T03:56:51.139Z,21.30
2022-08-14T03:59:19.663Z,21.30
2022-08-14T04:01:58.088Z,21.20
2022-08-14T04:04:32.126Z,21.20
2022-08-14T04:07:00.784Z,21.10
2022-08-14T04:09:29.301Z,21.00
2022-08-14T04:11:58.059Z,21.10
2022-08-14T04:14:26.196Z,21.10
2022-08-14T04:16:52.863Z,21.10
2022-08-14T04:19:23.713Z,21.10
2022-08-14T04:22:01.744Z,21.20
2022-08-14T04:24:30.700Z,21.30
2022-08-14T04:27:04.350Z,21.40
2022-08-14T04:29:32.591Z,21.40
2022-08-14T04:33:01.025Z,21.30
2022-08-14T04:34:52.009Z,21.40
2022-08-14T04:37:42.395Z,21.40
2022-08-14T04:40:28.563Z,21.40
2022-08-14T04:43:17.678Z,21.40
2022-08-14T04:45:45.012Z,21.40
2022-08-14T04:48:39.573Z,21.50
2022-08-14T04:51:05.888Z,21.30
2022-08-14T04:53:35.293Z,21.60
2022-08-14T04:56:10.841Z,21.60
2022-08-14T04:58:58.700Z,21.50
2022-08-14T05:01:28.439Z,21.60
2022-08-14T05:04:00.551Z,21.70
2022-08-14T05:06:34.906Z,21.80
2022-08-14T05:09:07.291Z,21.70
2022-08-14T05:11:38.274Z,21.80
2022-08-14T05:14:16.691Z,21.70
2022-08-14T05:16:52.300Z,22.10
2022-08-14T05:19:25.040Z,22.20
2022-08-14T05:22:15.859Z,22.20
2022-08-14T05:24:45.361Z,22.30
2022-08-14T05:27:16.665Z,22.40
2022-08-14T05:29:44.805Z,22.40
2022-08-14T05:32:12.459Z,22.50
2022-08-14T05:34:39.586Z,22.50
2022-08-14T05:37:07.474Z,22.50
2022-08-14T05:39:34.397Z,22.60
2022-08-14T05:42:01.059Z,22.70
2022-08-14T05:44:36.699Z,22.70
2022-08-14T05:47:04.334Z,22.80
2022-08-14T05:49:33.123Z,22.80
2022-08-14T05:52:03.759Z,22.70
2022-08-14T05:54:36.368Z,22.90
2022-08-14T05:57:04.678Z,23.00
2022-08-14T05:59:38.567Z,23.10
2022-08-14T06:02:07.654Z,23.20
2022-08-14T06:04:36.985Z,23.20
2022-08-14T06:07:04.221Z,23.30
2022-08-14T06:09:36.025Z,23.30
2022-08-14T06:12:11.870Z,23.30
2022-08-14T06:14:39.386Z,23.40
2022-08-14T06:17:06.539Z,23.50
2022-08-14T06:19:33.163Z,23.70
2022-08-14T06:21:59.867Z,23.80
2022-08-14T06:24:27.614Z,23.90
2022-08-14T06:27:04.346Z,24.00
2022-08-14T06:29:34.897Z,24.00
2022-08-14T06:32:37.742Z,24.00
2022-08-14T06:35:04.693Z,24.10
2022-08-14T06:37:41.387Z,24.20
2022-08-14T06:40:25.766Z,24.20
2022-08-14T06:43:00.311Z,24.30
2022-08-14T06:45:31.201Z,24.40
2022-08-14T06:47:58.629Z,24.20
2022-08-14T06:50:28.588Z,24.50
2022-08-14T06:52:58.455Z,24.60
2022-08-14T06:55:27.799Z,24.70
2022-08-14T06:57:56.478Z,24.70
2022-08-14T07:00:30.929Z,24.90
2022-08-14T07:03:19.373Z,24.90
2022-08-14T07:05:54.963Z,25.10
2022-08-14T07:08:31.686Z,25.20
2022-08-14T07:11:01.381Z,25.30
2022-08-14T07:13:30.449Z,25.40
2022-08-14T07:15:58.713Z,25.40
2022-08-14T07:18:35.770Z,25.50
2022-08-14T07:21:05.275Z,25.50
2022-08-14T07:23:34.825Z,25.60
2022-08-14T07:26:07.804Z,25.60
2022-08-14T07:28:42.997Z,25.70
2022-08-14T07:31:11.989Z,25.90
2022-08-14T07:33:41.671Z,26.00
2022-08-14T07:36:27.127Z,26.10
2022-08-14T07:38:58.041Z,26.30
2022-08-14T07:41:24.642Z,26.60
2022-08-14T07:43:59.349Z,27.10
2022-08-14T07:46:29.248Z,27.50
2022-08-14T07:48:56.912Z,27.70
2022-08-14T07:51:23.945Z,27.90
2022-08-14T07:53:57.126Z,28.10
2022-08-14T07:56:44.409Z,28.30
2022-08-14T07:59:11.517Z,28.30
2022-08-14T08:01:51.327Z,28.20
2022-08-14T08:04:25.308Z,28.10
2022-08-14T08:06:54.769Z,28.00
2022-08-14T08:09:32.201Z,28.00
2022-08-14T08:12:04.813Z,28.00
2022-08-14T08:14:56.291Z,27.70
2022-08-14T08:17:23.392Z,27.70
2022-08-14T08:19:51.581Z,27.70
2022-08-14T08:22:21.140Z,27.80
2022-08-14T08:24:50.412Z,27.80
2022-08-14T08:27:21.865Z,27.90
2022-08-14T08:29:50.714Z,27.90
2022-08-14T08:32:18.495Z,27.90
2022-08-14T08:34:46.657Z,28.00
2022-08-14T08:37:14.569Z,28.10
2022-08-14T08:40:02.376Z,28.10
2022-08-14T08:42:41.183Z,28.20
2022-08-14T08:45:12.055Z,28.20
2022-08-14T08:47:40.825Z,28.40
2022-08-14T08:50:31.568Z,28.50
2022-08-14T08:53:00.062Z,28.70
2022-08-14T08:55:38.424Z,28.70
2022-08-14T08:58:12.538Z,28.70
2022-08-14T09:00:50.261Z,28.70
2022-08-14T09:03:27.961Z,28.60
2022-08-14T09:06:03.833Z,28.70
2022-08-14T09:08:33.409Z,28.70
2022-08-14T09:11:19.837Z,28.80
2022-08-14T09:13:52.637Z,28.90
2022-08-14T09:16:24.883Z,28.80
2022-08-14T09:18:53.276Z,28.80
2022-08-14T09:21:20.945Z,28.80
2022-08-14T09:24:29.133Z,28.90
2022-08-14T09:26:39.766Z,28.90
2022-08-14T09:29:07.439Z,29.00
2022-08-14T09:31:53.489Z,29.10
2022-08-14T09:34:59.183Z,29.20
2022-08-14T09:37:40.169Z,29.30
2022-08-14T09:40:42.551Z,29.40
2022-08-14T09:43:51.714Z,29.40
2022-08-14T09:46:21.171Z,29.40
2022-08-14T09:49:00.229Z,29.50
2022-08-14T09:51:33.200Z,29.60
2022-08-14T09:54:19.096Z,29.70
2022-08-14T09:56:51.662Z,29.80
2022-08-14T09:59:25.499Z,29.90
2022-08-14T10:01:57.015Z,29.80
2022-08-14T10:04:36.057Z,30.00
2022-08-14T10:07:05.937Z,30.00
2022-08-14T10:09:35.245Z,29.90
2022-08-14T10:12:04.743Z,30.00
2022-08-14T10:14:35.855Z,30.10
2022-08-14T10:17:05.999Z,30.20
2022-08-14T10:19:35.262Z,30.40
2022-08-14T10:23:13.598Z,30.50
2022-08-14T10:24:55.423Z,30.60
2022-08-14T10:27:24.695Z,30.70
2022-08-14T10:30:01.314Z,30.70
2022-08-14T10:32:39.922Z,30.70
2022-08-14T10:35:14.488Z,30.70
2022-08-14T10:37:52.558Z,30.90
2022-08-14T10:40:37.748Z,30.80
2022-08-14T10:43:18.146Z,30.80
2022-08-14T10:45:59.661Z,30.90
2022-08-14T10:48:37.237Z,30.90
2022-08-14T10:51:08.436Z,30.90
2022-08-14T10:53:39.807Z,30.90
2022-08-14T10:56:21.798Z,30.90
2022-08-14T10:59:02.604Z,30.80
2022-08-14T11:01:41.237Z,30.70
2022-08-14T11:04:25.980Z,30.70
2022-08-14T11:06:55.350Z,30.90
2022-08-14T11:09:22.969Z,30.90
2022-08-14T11:11:56.471Z,31.00
2022-08-14T11:15:02.221Z,31.00
2022-08-14T11:17:33.948Z,31.10
2022-08-14T11:20:03.555Z,31.10
2022-08-14T11:22:56.181Z,31.20
2022-08-14T11:25:23.396Z,31.00
2022-08-14T11:27:52.988Z,31.20
2022-08-14T11:30:50.403Z,31.10
2022-08-14T11:33:11.657Z,30.90
2022-08-14T11:35:44.126Z,30.70
2022-08-14T11:38:14.465Z,30.70
2022-08-14T11:40:43.933Z,30.70
2022-08-14T11:43:15.070Z,30.70
2022-08-14T11:45:47.639Z,30.70
2022-08-14T11:49:04.095Z,30.80
2022-08-14T11:51:23.758Z,30.80
2022-08-14T11:54:13.427Z,30.80
2022-08-14T11:56:49.742Z,30.90
2022-08-14T11:59:19.945Z,30.90
2022-08-14T12:01:54.842Z,31.00
2022-08-14T12:04:32.154Z,31.00
2022-08-14T12:07:00.762Z,31.00
2022-08-14T12:09:37.139Z,31.00
2022-08-14T12:12:36.076Z,31.00
2022-08-14T12:15:04.310Z,31.10
2022-08-14T12:17:34.218Z,31.20
2022-08-14T12:20:14.838Z,31.20
2022-08-14T12:22:44.366Z,31.10
2022-08-14T12:25:20.221Z,31.30
2022-08-14T12:27:53.677Z,31.30
2022-08-14T12:30:38.144Z,31.30
2022-08-14T12:33:21.978Z,31.40
2022-08-14T12:35:51.204Z,31.40
2022-08-14T12:38:44.922Z,31.60
2022-08-14T12:41:20.277Z,31.60
2022-08-14T12:43:51.912Z,31.60
2022-08-14T12:46:27.295Z,31.50
2022-08-14T12:48:57.632Z,31.40
2022-08-14T12:51:27.553Z,31.30
2022-08-14T12:53:56.613Z,31.10
2022-08-14T12:56:33.014Z,31.10
2022-08-14T12:59:01.169Z,31.00
2022-08-14T13:01:31.393Z,31.10
2022-08-14T13:04:10.424Z,31.20
2022-08-14T13:06:38.999Z,31.40
2022-08-14T13:09:11.193Z,31.50
2022-08-14T13:11:58.460Z,31.60
2022-08-14T13:14:29.829Z,31.70
2022-08-14T13:16:58.591Z,31.80
2022-08-14T13:19:26.726Z,31.90
2022-08-14T13:22:05.315Z,32.10
2022-08-14T13:24:33.797Z,32.10
2022-08-14T13:27:04.197Z,32.00
2022-08-14T13:29:37.554Z,32.10
2022-08-14T13:32:09.430Z,31.90
2022-08-14T13:34:37.405Z,32.00
2022-08-14T13:37:07.124Z,31.90
2022-08-14T13:39:35.953Z,32.00
2022-08-14T13:42:08.701Z,32.00
2022-08-14T13:44:43.148Z,32.00
2022-08-14T13:47:14.557Z,32.10
2022-08-14T13:49:57.658Z,32.10
2022-08-14T13:52:51.930Z,32.00
2022-08-14T13:55:15.467Z,31.90
2022-08-14T13:57:49.498Z,31.90
2022-08-14T14:00:21.792Z,31.90
2022-08-14T14:03:00.195Z,31.90
2022-08-14T14:05:52.647Z,31.90
2022-08-14T14:08:18.619Z,31.90
2022-08-14T14:11:03.074Z,31.90
2022-08-14T14:13:31.798Z,31.80
2022-08-14T14:16:02.243Z,31.70
2022-08-14T14:18:34.704Z,31.70
2022-08-14T14:21:02.511Z,31.60
2022-08-14T14:23:31.083Z,31.60
2022-08-14T14:25:59.671Z,31.70
2022-08-14T14:28:34.781Z,31.70
2022-08-14T14:31:07.054Z,31.60
2022-08-14T14:33:51.092Z,31.50
2022-08-14T14:36:27.891Z,31.60
2022-08-14T14:39:01.079Z,31.50
2022-08-14T14:41:37.322Z,31.50
2022-08-14T14:44:08.889Z,31.40
2022-08-14T14:46:41.663Z,31.40
2022-08-14T14:49:14.714Z,31.40
2022-08-14T14:51:43.567Z,31.50
2022-08-14T14:54:12.975Z,31.40
2022-08-14T14:56:49.919Z,31.40
2022-08-14T14:59:19.815Z,31.40
2022-08-14T15:01:52.818Z,31.30
2022-08-14T15:04:20.403Z,31.40
2022-08-14T15:06:48.414Z,31.30
2022-08-14T15:09:18.132Z,31.40
2022-08-14T15:11:47.282Z,31.40
2022-08-14T15:14:55.949Z,31.30
2022-08-14T15:17:01.812Z,31.20
2022-08-14T15:19:28.758Z,31.30
2022-08-14T15:21:55.421Z,29.60
2022-08-14T15:24:24.529Z,31.30
2022-08-14T15:26:54.174Z,31.40
2022-08-14T15:29:20.784Z,31.40
2022-08-14T15:31:47.357Z,31.30
2022-08-14T15:34:45.552Z,31.40
2022-08-14T15:37:06.311Z,31.30
2022-08-14T15:39:38.543Z,31.30
2022-08-14T15:42:15.809Z,31.40
2022-08-14T15:44:44.871Z,31.40
2022-08-14T15:47:27.774Z,31.30
2022-08-14T15:49:59.142Z,33.40
2022-08-14T15:52:32.729Z,31.30
2022-08-14T15:55:14.525Z,31.30
2022-08-14T15:58:01.464Z,31.30
2022-08-14T16:00:51.594Z,31.30
2022-08-14T16:03:27.848Z,31.30
2022-08-14T16:06:04.540Z,31.20
2022-08-14T16:08:32.452Z,31.20
2022-08-14T16:11:01.298Z,31.20
2022-08-14T16:13:42.969Z,31.10
2022-08-14T16:16:34.627Z,31.10
2022-08-14T16:19:07.437Z,31.00
2022-08-14T16:21:40.091Z,30.90
2022-08-14T16:24:08.213Z,30.80
2022-08-14T16:26:56.112Z,30.90
2022-08-14T16:29:30.128Z,30.90
2022-08-14T16:32:00.285Z,30.90
2022-08-14T16:34:47.198Z,30.90
2022-08-14T16:37:18.419Z,29.20
2022-08-14T16:39:47.004Z,30.70
2022-08-14T16:43:03.407Z,30.70
2022-08-14T16:45:02.645Z,30.70
2022-08-14T16:47:32.092Z,30.70
2022-08-14T16:50:08.294Z,30.50
2022-08-14T16:52:44.456Z,30.30
2022-08-14T16:55:22.296Z,30.40
2022-08-14T16:57:58.516Z,30.40
2022-08-14T17:00:43.457Z,30.30
2022-08-14T17:03:12.392Z,30.30
2022-08-14T17:05:43.120Z,30.20
2022-08-14T17:08:32.370Z,30.20
2022-08-14T17:11:10.807Z,30.20
2022-08-14T17:13:57.882Z,30.20
2022-08-14T17:16:30.890Z,30.10
2022-08-14T17:19:01.715Z,30.10
2022-08-14T17:21:37.937Z,30.00
2022-08-14T17:24:55.850Z,30.00
2022-08-14T17:26:55.780Z,29.90
2022-08-14T17:29:29.413Z,29.80
2022-08-14T17:32:28.433Z,29.80
2022-08-14T17:35:04.299Z,29.70
2022-08-14T17:37:37.316Z,29.70
2022-08-14T17:40:15.129Z,29.70
2022-08-14T17:42:51.015Z,29.60
2022-08-14T17:45:26.764Z,29.60
2022-08-14T17:47:59.299Z,29.50
2022-08-14T17:50:59.755Z,29.50
2022-08-14T17:53:30.341Z,29.40
2022-08-14T17:56:01.683Z,29.40
2022-08-14T17:58:38.643Z,29.40
2022-08-14T18:01:13.682Z,29.40
2022-08-14T18:03:49.931Z,29.30
2022-08-14T18:06:38.660Z,29.30
2022-08-14T18:09:24.662Z,29.20
2022-08-14T18:11:57.997Z,29.10
2022-08-14T18:14:32.205Z,29.00
2022-08-14T18:17:01.347Z,28.80
2022-08-14T18:19:30.003Z,28.80
2022-08-14T18:21:58.557Z,28.80
2022-08-14T18:24:29.424Z,28.70
2022-08-14T18:27:08.958Z,28.70
2022-08-14T18:29:42.583Z,28.60
2022-08-14T18:32:27.798Z,28.60
2022-08-14T18:35:13.393Z,28.50
2022-08-14T18:37:41.368Z,28.50
2022-08-14T18:40:17.829Z,28.50
2022-08-14T18:43:02.154Z,28.40
2022-08-14T18:45:32.938Z,28.40
2022-08-14T18:48:18.588Z,28.50
2022-08-14T18:50:53.969Z,28.40
2022-08-14T18:53:25.428Z,28.30
2022-08-14T18:56:09.333Z,28.30
2022-08-14T18:58:58.511Z,28.40
2022-08-14T19:01:30.278Z,28.30
2022-08-14T19:03:59.201Z,28.20
2022-08-14T19:06:37.580Z,28.20
2022-08-14T19:09:05.191Z,28.10
2022-08-14T19:11:32.378Z,28.10
2022-08-14T19:14:00.356Z,28.00
2022-08-14T19:16:34.840Z,28.00
2022-08-14T19:19:08.087Z,27.80
2022-08-14T19:21:43.456Z,28.00
2022-08-14T19:24:27.278Z,28.00
2022-08-14T19:27:19.250Z,27.90
2022-08-14T19:29:51.461Z,27.90
2022-08-14T19:32:36.727Z,27.90
2022-08-14T19:35:17.139Z,27.80
2022-08-14T19:37:54.893Z,27.80
2022-08-14T19:40:39.222Z,27.80
2022-08-14T19:43:09.256Z,27.70
2022-08-14T19:45:38.273Z,27.70
2022-08-14T19:48:13.220Z,27.60
2022-08-14T19:50:44.182Z,27.60
2022-08-14T19:53:18.017Z,27.60
2022-08-14T19:55:58.595Z,27.50
2022-08-14T19:58:55.315Z,27.50
2022-08-14T20:01:37.293Z,27.40
2022-08-14T20:04:47.677Z,27.40
2022-08-14T20:06:55.736Z,28.00
2022-08-14T20:11:06.267Z,27.20
2022-08-14T20:12:34.849Z,27.10
2022-08-14T20:15:15.567Z,26.90
2022-08-14T20:17:52.399Z,26.90
2022-08-14T20:20:31.946Z,26.80
2022-08-14T20:23:10.832Z,26.80
2022-08-14T20:25:45.627Z,26.60
2022-08-14T20:28:35.658Z,26.50
2022-08-14T20:31:17.752Z,26.40
2022-08-14T20:34:36.168Z,26.20
2022-08-14T20:37:11.605Z,26.20
2022-08-14T20:39:45.022Z,26.10
2022-08-14T20:42:39.461Z,26.10
2022-08-14T20:45:23.729Z,26.00
2022-08-14T20:48:07.256Z,26.00
2022-08-14T20:50:36.635Z,26.10
2022-08-14T20:53:31.951Z,26.20
2022-08-14T20:56:04.408Z,26.10
2022-08-14T20:58:51.003Z,26.10
2022-08-14T21:01:18.798Z,26.10
2022-08-14T21:03:56.744Z,26.00
2022-08-14T21:06:24.640Z,26.10
2022-08-14T21:08:54.385Z,26.10
2022-08-14T21:11:24.783Z,26.20
2022-08-14T21:14:24.738Z,26.20
2022-08-14T21:16:58.022Z,26.00
2022-08-14T21:19:26.397Z,26.20
2022-08-14T21:21:55.543Z,26.10
2022-08-14T21:24:38.839Z,26.10
2022-08-14T21:27:20.316Z,26.00
2022-08-14T21:29:55.967Z,26.00
2022-08-14T21:32:34.960Z,26.00
2022-08-14T21:35:09.035Z,26.00
2022-08-14T21:37:47.691Z,26.00
2022-08-14T21:40:33.211Z,26.00
2022-08-14T21:43:05.091Z,26.00
2022-08-14T21:45:35.778Z,25.90
2022-08-14T21:48:10.675Z,25.90
2022-08-14T21:51:01.655Z,25.90
2022-08-14T21:53:32.708Z,25.80
2022-08-14T21:56:01.293Z,25.80
2022-08-14T21:58:52.203Z,25.70
2022-08-14T22:01:19.148Z,25.40
2022-08-14T22:03:54.526Z,25.70
2022-08-14T22:06:28.608Z,25.70
2022-08-14T22:08:56.555Z,25.60
2022-08-14T22:11:23.415Z,25.60
2022-08-14T22:13:51.775Z,25.50
2022-08-14T22:17:01.558Z,25.50
2022-08-14T22:19:13.827Z,25.50
2022-08-14T22:21:44.045Z,25.40
2022-08-14T22:24:12.902Z,25.50
2022-08-14T22:27:01.438Z,25.40
2022-08-14T22:29:28.694Z,25.40
2022-08-14T22:31:55.654Z,24.90
2022-08-14T22:34:23.009Z,25.30
2022-08-14T22:36:50.831Z,25.20
2022-08-14T22:40:17.666Z,25.20
2022-08-14T22:42:21.282Z,25.10
2022-08-14T22:44:51.725Z,25.00
2022-08-14T22:47:24.797Z,25.00
2022-08-14T22:50:32.236Z,24.90
2022-08-14T22:52:39.283Z,24.90
2022-08-14T22:55:07.131Z,24.80
2022-08-14T22:57:37.930Z,24.80
2022-08-14T23:00:13.471Z,24.80
2022-08-14T23:02:41.692Z,24.70
2022-08-14T23:05:12.861Z,24.60
2022-08-14T23:08:58.073Z,24.50
2022-08-14T23:10:31.801Z,24.50
2022-08-14T23:13:01.099Z,24.40
2022-08-14T23:15:29.934Z,24.40
2022-08-14T23:17:57.333Z,24.40
2022-08-14T23:20:29.558Z,24.50
2022-08-14T23:22:57.357Z,24.40
2022-08-14T23:25:57.684Z,24.40
2022-08-14T23:28:34.736Z,24.40
2022-08-14T23:31:34.646Z,24.30
2022-08-14T23:34:06.967Z,24.30
2022-08-14T23:36:50.612Z,24.20
2022-08-14T23:39:29.640Z,24.10
2022-08-14T23:42:02.296Z,24.10
2022-08-14T23:44:35.118Z,24.00
2022-08-14T23:47:05.493Z,24.00
2022-08-14T23:49:56.414Z,23.90
2022-08-14T23:52:55.484Z,23.80
2022-08-14T23:55:11.348Z,23.90
2022-08-14T23:57:43.568Z,23.70
